createdAt,value
2022-10-07T02:25:12.301Z,8.52
2022-10-07T02:35:54.743Z,8.43
2022-10-07T03:14:32.602Z,6.38
2022-10-07T03:32:18.692Z,6.53
2022-10-07T04:30:35.561Z,5.28
2022-10-07T04:34:39.939Z,5.32
2022-10-07T04:49:44.577Z,4.82
2022-10-07T04:53:21.348Z,5.22
2022-10-07T05:12:39.993Z,6.68
2022-10-07T05:19:57.728Z,8.35
2022-10-07T06:51:17.354Z,25.77
2022-10-07T09:07:54.821Z,19.08
2022-10-07T09:10:53.656Z,20.33
2022-10-07T09:14:21.895Z,19.73
2022-10-07T09:17:48.080Z,19.70
2022-10-07T09:21:08.637Z,21.20
2022-10-07T09:24:46.025Z,21.70
2022-10-07T09:27:34.332Z,21.95
2022-10-07T09:30:34.495Z,20.08
2022-10-07T09:33:19.007Z,21.20
2022-10-07T09:35:58.080Z,21.23
2022-10-07T09:40:38.256Z,19.77
2022-10-07T09:52:00.278Z,20.67
2022-10-07T09:58:51.629Z,22.67
2022-10-07T10:12:43.683Z,20.25
2022-10-07T10:27:20.479Z,20.42
2022-10-07T10:35:35.412Z,20.17
2022-10-07T10:47:09.942Z,18.45
2022-10-07T10:55:03.990Z,17.33
2022-10-07T11:02:17.909Z,18.23
2022-10-07T11:06:46.037Z,18.20
2022-10-07T11:33:48.968Z,17.75
2022-10-07T11:41:17.140Z,16.05
2022-10-07T11:44:50.959Z,16.35
2022-10-07T12:27:32.300Z,14.68
2022-10-07T12:30:12.674Z,13.20
2022-10-07T12:34:08.001Z,15.02
2022-10-07T12:36:44.932Z,15.15
2022-10-07T12:39:53.494Z,15.15
2022-10-07T12:50:43.337Z,17.48
2022-10-07T12:53:57.802Z,17.55
2022-10-07T12:57:24.151Z,17.10
2022-10-07T13:00:27.532Z,18.65
2022-10-07T13:03:43.878Z,20.67
2022-10-07T13:06:42.203Z,19.25
2022-10-07T13:09:41.297Z,19.35
2022-10-07T13:12:23.498Z,18.50
2022-10-07T13:15:05.621Z,18.95
2022-10-07T13:18:10.888Z,20.67
2022-10-07T13:21:01.358Z,18.70
2022-10-07T13:23:30.419Z,19.77
2022-10-07T13:26:03.571Z,18.98
2022-10-07T13:28:39.164Z,18.77
2022-10-07T13:31:34.998Z,20.42
2022-10-07T13:34:15.766Z,20.67
2022-10-07T13:36:46.446Z,19.67
2022-10-07T13:39:16.821Z,20.15
2022-10-07T13:41:47.510Z,21.35
2022-10-07T13:44:20.189Z,20.65
2022-10-07T13:47:00.247Z,20.00
2022-10-07T13:49:30.466Z,20.17
2022-10-07T13:52:01.099Z,20.90
2022-10-07T13:54:31.242Z,20.10
2022-10-07T13:56:59.540Z,19.95
2022-10-07T13:59:27.481Z,20.25
2022-10-07T14:01:58.745Z,21.60
2022-10-07T14:04:33.172Z,20.77
2022-10-07T14:07:18.081Z,19.42
2022-10-07T14:09:59.448Z,20.33
2022-10-07T14:12:41.794Z,20.40
2022-10-07T14:15:16.058Z,20.42
2022-10-07T14:17:51.872Z,19.23
2022-10-07T14:20:32.980Z,20.85
2022-10-07T14:23:07.709Z,19.05
2022-10-07T14:25:53.295Z,18.40
2022-10-07T14:28:30.587Z,18.10
2022-10-07T14:31:25.580Z,19.10
2022-10-07T14:34:33.368Z,18.55
2022-10-07T14:38:14.434Z,18.05
2022-10-07T14:42:12.541Z,18.60
2022-10-07T14:45:21.084Z,18.17
2022-10-07T14:51:29.660Z,18.48
2022-10-07T14:55:34.193Z,18.70
2022-10-07T15:05:23.694Z,19.38
2022-10-07T15:12:15.900Z,18.20
2022-10-07T15:19:49.542Z,17.67
2022-10-07T15:33:40.142Z,19.15
2022-10-07T15:36:46.903Z,18.33
2022-10-07T15:47:39.344Z,19.42
2022-10-07T15:50:38.242Z,19.67
2022-10-07T15:56:28.860Z,19.70
2022-10-07T15:59:13.373Z,19.30
2022-10-07T16:02:05.047Z,18.83
2022-10-07T16:07:37.891Z,18.30
2022-10-07T16:10:17.995Z,18.60
2022-10-07T16:12:58.532Z,18.88
2022-10-07T16:15:44.266Z,18.55
2022-10-07T16:18:13.963Z,18.75
2022-10-07T16:20:46.261Z,18.00
2022-10-07T16:23:33.053Z,19.55
2022-10-07T16:26:12.255Z,18.98
2022-10-07T16:31:28.561Z,19.02
2022-10-07T16:33:55.885Z,21.58
2022-10-07T16:36:25.907Z,19.90
2022-10-07T16:38:54.157Z,22.50
2022-10-07T16:41:21.832Z,21.10
2022-10-07T16:43:48.814Z,20.10
2022-10-07T16:46:22.933Z,22.30
2022-10-07T16:48:50.850Z,23.27
2022-10-07T16:51:23.032Z,22.77
2022-10-07T16:53:54.013Z,22.10
2022-10-07T16:56:21.632Z,22.38
2022-10-07T16:58:55.366Z,23.80
2022-10-07T17:01:25.709Z,23.48
2022-10-07T17:03:53.900Z,23.50
2022-10-07T17:06:25.705Z,24.33
2022-10-07T17:08:56.239Z,23.95
2022-10-07T17:11:30.304Z,23.48
2022-10-07T17:14:01.971Z,22.98
2022-10-07T17:16:42.824Z,21.60
2022-10-07T17:19:13.026Z,22.98
2022-10-07T17:21:41.974Z,23.75
2022-10-07T17:24:09.705Z,24.00
2022-10-07T17:26:37.755Z,23.05
2022-10-07T17:29:07.749Z,23.85
2022-10-07T17:31:36.279Z,25.45
2022-10-07T17:34:06.157Z,23.73
2022-10-07T17:36:33.343Z,24.83
2022-10-07T17:39:00.239Z,25.65
2022-10-07T17:41:32.309Z,25.55
2022-10-07T17:44:01.196Z,22.35
2022-10-07T17:46:30.470Z,24.60
2022-10-07T17:48:59.131Z,20.42
2022-10-07T17:51:28.875Z,20.75
2022-10-07T17:53:57.203Z,26.48
2022-10-07T17:56:23.963Z,25.88
2022-10-07T17:58:50.972Z,25.98
2022-10-07T18:01:26.957Z,20.90
2022-10-07T18:03:57.441Z,17.42
2022-10-07T18:06:51.858Z,24.02
2022-10-07T18:09:34.772Z,17.02
2022-10-07T18:12:23.208Z,23.02
2022-10-07T18:15:08.666Z,20.50
2022-10-07T18:17:36.845Z,21.70
2022-10-07T18:20:07.289Z,19.63
2022-10-07T18:22:38.722Z,19.58
2022-10-07T18:25:11.827Z,19.25
2022-10-07T18:27:42.147Z,23.10
2022-10-07T18:30:12.669Z,20.75
2022-10-07T18:32:39.871Z,22.80
2022-10-07T18:35:07.247Z,16.95
2022-10-07T18:37:34.877Z,23.92
2022-10-07T18:40:07.127Z,18.70
2022-10-07T18:42:36.556Z,19.50
2022-10-07T18:45:03.536Z,20.98
2022-10-07T18:47:30.413Z,20.95
2022-10-07T18:49:57.386Z,15.98
2022-10-07T18:52:25.465Z,18.90
2022-10-07T18:54:52.427Z,19.40
2022-10-07T18:57:20.295Z,23.65
2022-10-07T18:59:46.987Z,23.75
2022-10-07T19:02:14.049Z,20.25
2022-10-07T19:04:43.245Z,20.55
2022-10-07T19:07:10.034Z,26.95
2022-10-07T19:09:36.802Z,26.20
2022-10-07T19:12:04.080Z,20.67
2022-10-07T19:14:31.189Z,26.42
2022-10-07T19:16:58.035Z,24.38
2022-10-07T19:19:25.213Z,28.23
2022-10-07T19:21:54.846Z,27.23
2022-10-07T19:24:42.807Z,22.27
2022-10-07T19:27:09.545Z,22.83
2022-10-07T19:29:36.295Z,28.33
2022-10-07T19:32:07.819Z,27.60
2022-10-07T19:34:35.151Z,22.42
2022-10-07T19:37:02.079Z,22.23
2022-10-07T19:39:28.838Z,22.30
2022-10-07T19:41:57.447Z,22.63
2022-10-07T19:44:24.274Z,21.65
2022-10-07T19:46:52.349Z,24.60
2022-10-07T19:49:19.110Z,19.25
2022-10-07T19:51:45.922Z,26.95
2022-10-07T19:54:13.078Z,19.48
2022-10-07T19:56:40.920Z,20.23
2022-10-07T19:59:10.263Z,23.70
2022-10-07T20:01:39.503Z,19.10
2022-10-07T20:04:15.509Z,22.15
2022-10-07T20:06:43.087Z,19.27
2022-10-07T20:09:12.258Z,23.55
2022-10-07T20:11:39.094Z,26.27
2022-10-07T20:14:06.630Z,23.63
2022-10-07T20:16:34.207Z,19.67
2022-10-07T20:19:11.110Z,23.25
2022-10-07T20:21:38.588Z,19.15
2022-10-07T20:24:09.038Z,20.33
2022-10-07T20:26:38.205Z,18.27
2022-10-07T20:29:07.194Z,20.70
2022-10-07T20:31:36.566Z,20.83
2022-10-07T20:34:03.754Z,15.20
2022-10-07T20:36:33.416Z,23.75
2022-10-07T20:39:34.369Z,20.27
2022-10-07T20:42:20.501Z,23.50
2022-10-07T20:44:49.168Z,19.70
2022-10-07T20:47:15.989Z,24.45
2022-10-07T20:49:42.915Z,19.50
2022-10-07T20:52:16.840Z,17.35
2022-10-07T20:54:44.377Z,25.00
2022-10-07T20:57:16.527Z,20.63
2022-10-07T20:59:44.201Z,23.77
2022-10-07T21:02:13.514Z,20.80
2022-10-07T21:04:40.344Z,17.50
2022-10-07T21:07:08.316Z,23.13
2022-10-07T21:09:39.730Z,20.65
2022-10-07T21:12:09.522Z,21.92
2022-10-07T21:14:36.675Z,23.60
2022-10-07T21:17:04.867Z,21.80
2022-10-07T21:19:32.674Z,23.67
2022-10-07T21:21:59.652Z,19.00
2022-10-07T21:24:26.349Z,22.70
2022-10-07T21:26:53.249Z,22.98
2022-10-07T21:29:20.052Z,23.67
2022-10-07T21:31:46.823Z,18.23
2022-10-07T21:34:13.741Z,24.90
2022-10-07T21:36:49.143Z,20.77
2022-10-07T21:39:18.602Z,21.52
2022-10-07T21:41:45.537Z,20.98
2022-10-07T21:44:13.504Z,19.20
2022-10-07T21:46:42.883Z,23.17
2022-10-07T21:49:09.805Z,22.08
2022-10-07T21:51:36.639Z,21.75
2022-10-07T21:54:04.449Z,27.75
2022-10-07T21:56:33.023Z,20.02
2022-10-07T21:59:05.403Z,19.63
2022-10-07T22:01:32.469Z,21.17
2022-10-07T22:04:03.368Z,16.33
2022-10-07T22:06:50.109Z,27.42
2022-10-07T22:09:20.238Z,22.75
2022-10-07T22:11:47.436Z,23.80
2022-10-07T22:14:14.505Z,20.20
2022-10-07T22:16:42.423Z,22.73
2022-10-07T22:19:10.746Z,23.27
2022-10-07T22:21:40.194Z,20.55
2022-10-07T22:24:10.383Z,20.27
2022-10-07T22:26:40.600Z,21.25
2022-10-07T22:29:09.626Z,18.35
2022-10-07T22:31:37.283Z,19.02
2022-10-07T22:34:04.874Z,21.45
2022-10-07T22:36:32.277Z,24.98
2022-10-07T22:38:59.762Z,23.50
2022-10-07T22:41:27.052Z,17.63
2022-10-07T22:43:54.330Z,20.15
2022-10-07T22:46:27.155Z,18.92
2022-10-07T22:48:58.021Z,18.13
2022-10-07T22:51:28.328Z,18.15
2022-10-07T22:53:56.708Z,16.90
2022-10-07T22:56:25.604Z,19.73
2022-10-07T22:58:57.951Z,18.42
2022-10-07T23:01:25.347Z,14.88
2022-10-07T23:03:52.689Z,16.48
2022-10-07T23:06:20.199Z,19.92
2022-10-07T23:08:48.601Z,15.00
2022-10-07T23:11:22.144Z,19.35
2022-10-07T23:13:49.643Z,27.42
2022-10-07T23:16:22.072Z,23.75
2022-10-07T23:18:52.536Z,20.90
2022-10-07T23:21:24.439Z,16.40
2022-10-07T23:23:53.405Z,17.38
2022-10-07T23:26:23.119Z,24.35
2022-10-07T23:28:51.783Z,21.42
2022-10-07T23:31:22.888Z,20.52
2022-10-07T23:33:55.218Z,22.77
2022-10-07T23:36:31.641Z,15.60
2022-10-07T23:39:01.431Z,19.10
2022-10-07T23:41:32.279Z,18.45
2022-10-07T23:44:02.664Z,18.02
2022-10-07T23:46:33.150Z,20.33
2022-10-07T23:49:03.189Z,18.52
2022-10-07T23:51:32.909Z,23.25
2022-10-07T23:54:04.175Z,18.27
2022-10-07T23:56:36.359Z,22.38
2022-10-07T23:59:03.739Z,21.83
